sensor_id;sensor_type;location;lat;lon;timestamp;temperature;humidity
4406;DHT22;2216;53.806;11.598;2023-03-14T00:02:03;11.20;78.80
4406;DHT22;2216;53.806;11.598;2023-03-14T00:04:29;11.20;78.80
4406;DHT22;2216;53.806;11.598;2023-03-14T00:06:55;11.20;78.80
4406;DHT22;2216;53.806;11.598;2023-03-14T00:09:20;11.20;78.90
4406;DHT22;2216;53.806;11.598;2023-03-14T00:11:46;11.20;78.90
4406;DHT22;2216;53.806;11.598;2023-03-14T00:14:12;11.20;78.90
4406;DHT22;2216;53.806;11.598;2023-03-14T00:16:37;11.20;79.00
4406;DHT22;2216;53.806;11.598;2023-03-14T00:19:03;11.20;79.10
4406;DHT22;2216;53.806;11.598;2023-03-14T00:21:29;11.20;79.10
4406;DHT22;2216;53.806;11.598;2023-03-14T00:23:54;11.20;79.10
4406;DHT22;2216;53.806;11.598;2023-03-14T00:26:21;11.20;79.10
4406;DHT22;2216;53.806;11.598;2023-03-14T00:28:47;11.30;79.10
4406;DHT22;2216;53.806;11.598;2023-03-14T00:31:16;11.20;79.00
4406;DHT22;2216;53.806;11.598;2023-03-14T00:33:44;11.20;79.00
4406;DHT22;2216;53.806;11.598;2023-03-14T00:36:13;11.20;79.00
4406;DHT22;2216;53.806;11.598;2023-03-14T00:38:42;11.20;79.00
4406;DHT22;2216;53.806;11.598;2023-03-14T00:41:11;11.30;79.80
4406;DHT22;2216;53.806;11.598;2023-03-14T00:43:39;11.30;79.10
4406;DHT22;2216;53.806;11.598;2023-03-14T00:46:05;11.30;79.00
4406;DHT22;2216;53.806;11.598;2023-03-14T00:48:31;11.30;79.00
4406;DHT22;2216;53.806;11.598;2023-03-14T00:50:57;11.30;79.00
4406;DHT22;2216;53.806;11.598;2023-03-14T00:53:23;11.30;79.00
4406;DHT22;2216;53.806;11.598;2023-03-14T00:55:49;11.30;79.10
4406;DHT22;2216;53.806;11.598;2023-03-14T00:58:16;11.30;79.00
4406;DHT22;2216;53.806;11.598;2023-03-14T01:00:43;11.30;79.00
4406;DHT22;2216;53.806;11.598;2023-03-14T01:03:11;11.30;79.00
4406;DHT22;2216;53.806;11.598;2023-03-14T01:05:37;11.30;79.00
4406;DHT22;2216;53.806;11.598;2023-03-14T01:08:04;11.30;78.90
4406;DHT22;2216;53.806;11.598;2023-03-14T01:10:30;11.30;78.90
4406;DHT22;2216;53.806;11.598;2023-03-14T01:12:56;11.30;78.90
4406;DHT22;2216;53.806;11.598;2023-03-14T01:15:21;11.20;78.70
4406;DHT22;2216;53.806;11.598;2023-03-14T01:17:47;11.20;78.80
4406;DHT22;2216;53.806;11.598;2023-03-14T01:20:14;11.20;78.80
4406;DHT22;2216;53.806;11.598;2023-03-14T01:22:41;11.20;78.80
4406;DHT22;2216;53.806;11.598;2023-03-14T01:25:09;11.10;78.80
4406;DHT22;2216;53.806;11.598;2023-03-14T01:27:38;11.10;78.80
4406;DHT22;2216;53.806;11.598;2023-03-14T01:30:05;11.10;78.90
4406;DHT22;2216;53.806;11.598;2023-03-14T01:32:32;11.10;79.10
4406;DHT22;2216;53.806;11.598;2023-03-14T01:34:57;11.10;79.00
4406;DHT22;2216;53.806;11.598;2023-03-14T01:37:24;11.10;79.10
4406;DHT22;2216;53.806;11.598;2023-03-14T01:39:49;11.00;80.20
4406;DHT22;2216;53.806;11.598;2023-03-14T01:42:15;11.00;79.40
4406;DHT22;2216;53.806;11.598;2023-03-14T01:44:49;11.00;79.60
4406;DHT22;2216;53.806;11.598;2023-03-14T01:47:16;11.00;79.40
4406;DHT22;2216;53.806;11.598;2023-03-14T01:49:42;11.00;79.40
4406;DHT22;2216;53.806;11.598;2023-03-14T01:52:35;11.00;79.60
4406;DHT22;2216;53.806;11.598;2023-03-14T01:55:06;11.00;79.40
4406;DHT22;2216;53.806;11.598;2023-03-14T01:57:44;11.00;79.40
4406;DHT22;2216;53.806;11.598;2023-03-14T02:00:26;11.00;79.30
4406;DHT22;2216;53.806;11.598;2023-03-14T02:03:14;11.00;79.30
4406;DHT22;2216;53.806;11.598;2023-03-14T02:05:43;11.00;79.40
4406;DHT22;2216;53.806;11.598;2023-03-14T02:08:18;11.00;79.40
4406;DHT22;2216;53.806;11.598;2023-03-14T02:10:47;11.10;79.50
4406;DHT22;2216;53.806;11.598;2023-03-14T02:13:16;11.00;79.40
4406;DHT22;2216;53.806;11.598;2023-03-14T02:15:43;11.00;79.50
4406;DHT22;2216;53.806;11.598;2023-03-14T02:18:09;11.10;79.60
4406;DHT22;2216;53.806;11.598;2023-03-14T02:23:41;11.10;79.50
4406;DHT22;2216;53.806;11.598;2023-03-14T02:26:38;11.10;79.50
4406;DHT22;2216;53.806;11.598;2023-03-14T02:29:06;11.10;79.50
4406;DHT22;2216;53.806;11.598;2023-03-14T02:31:32;11.10;79.40
4406;DHT22;2216;53.806;11.598;2023-03-14T02:33:59;11.10;79.50
4406;DHT22;2216;53.806;11.598;2023-03-14T02:36:26;11.10;80.20
4406;DHT22;2216;53.806;11.598;2023-03-14T02:39:11;11.10;79.40
4406;DHT22;2216;53.806;11.598;2023-03-14T02:41:40;11.10;79.40
4406;DHT22;2216;53.806;11.598;2023-03-14T02:44:07;11.10;79.40
4406;DHT22;2216;53.806;11.598;2023-03-14T02:46:33;11.10;79.40
4406;DHT22;2216;53.806;11.598;2023-03-14T02:49:08;11.10;79.40
4406;DHT22;2216;53.806;11.598;2023-03-14T02:51:36;11.10;79.30
4406;DHT22;2216;53.806;11.598;2023-03-14T02:54:02;11.10;79.30
4406;DHT22;2216;53.806;11.598;2023-03-14T02:56:28;11.10;79.30
4406;DHT22;2216;53.806;11.598;2023-03-14T02:58:54;11.10;79.40
4406;DHT22;2216;53.806;11.598;2023-03-14T03:01:19;11.10;79.40
4406;DHT22;2216;53.806;11.598;2023-03-14T03:03:45;11.10;79.40
4406;DHT22;2216;53.806;11.598;2023-03-14T03:06:11;11.20;79.50
4406;DHT22;2216;53.806;11.598;2023-03-14T03:08:36;11.10;79.40
4406;DHT22;2216;53.806;11.598;2023-03-14T03:11:02;11.10;79.40
4406;DHT22;2216;53.806;11.598;2023-03-14T03:13:29;11.20;79.40
4406;DHT22;2216;53.806;11.598;2023-03-14T03:15:54;11.10;79.40
4406;DHT22;2216;53.806;11.598;2023-03-14T03:18:20;11.10;79.40
4406;DHT22;2216;53.806;11.598;2023-03-14T03:20:46;11.10;79.40
4406;DHT22;2216;53.806;11.598;2023-03-14T03:23:12;11.10;79.40
4406;DHT22;2216;53.806;11.598;2023-03-14T03:25:38;11.20;79.50
4406;DHT22;2216;53.806;11.598;2023-03-14T03:28:04;11.10;79.40
4406;DHT22;2216;53.806;11.598;2023-03-14T03:30:36;11.10;79.40
4406;DHT22;2216;53.806;11.598;2023-03-14T03:33:03;11.20;79.50
4406;DHT22;2216;53.806;11.598;2023-03-14T03:35:28;11.20;79.50
4406;DHT22;2216;53.806;11.598;2023-03-14T03:37:54;11.20;79.60
4406;DHT22;2216;53.806;11.598;2023-03-14T03:40:20;11.20;79.50
4406;DHT22;2216;53.806;11.598;2023-03-14T03:42:45;11.20;79.40
4406;DHT22;2216;53.806;11.598;2023-03-14T03:45:12;11.10;79.20
4406;DHT22;2216;53.806;11.598;2023-03-14T03:47:38;11.10;79.20
4406;DHT22;2216;53.806;11.598;2023-03-14T03:50:04;11.10;79.10
4406;DHT22;2216;53.806;11.598;2023-03-14T03:52:30;11.10;79.10
4406;DHT22;2216;53.806;11.598;2023-03-14T03:54:55;11.00;79.10
4406;DHT22;2216;53.806;11.598;2023-03-14T03:57:21;11.00;79.00
4406;DHT22;2216;53.806;11.598;2023-03-14T03:59:47;10.90;78.90
4406;DHT22;2216;53.806;11.598;2023-03-14T04:02:12;10.90;78.90
4406;DHT22;2216;53.806;11.598;2023-03-14T04:04:38;10.90;79.00
4406;DHT22;2216;53.806;11.598;2023-03-14T04:07:04;10.80;78.90
4406;DHT22;2216;53.806;11.598;2023-03-14T04:09:30;10.80;79.00
4406;DHT22;2216;53.806;11.598;2023-03-14T04:11:56;10.80;79.00
4406;DHT22;2216;53.806;11.598;2023-03-14T04:14:22;10.70;79.00
4406;DHT22;2216;53.806;11.598;2023-03-14T04:16:48;10.70;79.00
4406;DHT22;2216;53.806;11.598;2023-03-14T04:19:14;10.70;79.10
4406;DHT22;2216;53.806;11.598;2023-03-14T04:21:39;10.70;79.20
4406;DHT22;2216;53.806;11.598;2023-03-14T04:24:10;10.60;79.20
4406;DHT22;2216;53.806;11.598;2023-03-14T04:26:36;10.60;79.20
4406;DHT22;2216;53.806;11.598;2023-03-14T04:29:01;10.60;79.30
4406;DHT22;2216;53.806;11.598;2023-03-14T04:31:27;10.50;79.20
4406;DHT22;2216;53.806;11.598;2023-03-14T04:33:53;10.60;79.40
4406;DHT22;2216;53.806;11.598;2023-03-14T04:36:18;10.60;79.40
4406;DHT22;2216;53.806;11.598;2023-03-14T04:38:44;10.60;79.50
4406;DHT22;2216;53.806;11.598;2023-03-14T04:41:10;10.60;79.50
4406;DHT22;2216;53.806;11.598;2023-03-14T04:43:36;10.50;79.50
4406;DHT22;2216;53.806;11.598;2023-03-14T04:46:02;10.60;79.60
4406;DHT22;2216;53.806;11.598;2023-03-14T04:48:27;10.60;79.70
4406;DHT22;2216;53.806;11.598;2023-03-14T04:50:54;10.60;79.70
4406;DHT22;2216;53.806;11.598;2023-03-14T04:53:20;10.60;79.80
4406;DHT22;2216;53.806;11.598;2023-03-14T04:55:53;10.70;79.90
4406;DHT22;2216;53.806;11.598;2023-03-14T04:58:20;10.70;79.90
4406;DHT22;2216;53.806;11.598;2023-03-14T05:00:47;10.70;79.90
4406;DHT22;2216;53.806;11.598;2023-03-14T05:03:17;10.70;79.80
4406;DHT22;2216;53.806;11.598;2023-03-14T05:05:44;10.80;79.80
4406;DHT22;2216;53.806;11.598;2023-03-14T05:08:10;10.70;79.70
4406;DHT22;2216;53.806;11.598;2023-03-14T05:10:36;10.80;79.70
4406;DHT22;2216;53.806;11.598;2023-03-14T05:13:02;10.80;79.60
4406;DHT22;2216;53.806;11.598;2023-03-14T05:15:28;10.80;79.60
4406;DHT22;2216;53.806;11.598;2023-03-14T05:17:54;10.80;79.60
4406;DHT22;2216;53.806;11.598;2023-03-14T05:20:20;10.80;79.60
4406;DHT22;2216;53.806;11.598;2023-03-14T05:22:46;10.80;79.50
4406;DHT22;2216;53.806;11.598;2023-03-14T05:25:12;10.80;79.50
4406;DHT22;2216;53.806;11.598;2023-03-14T05:27:38;10.80;79.40
4406;DHT22;2216;53.806;11.598;2023-03-14T05:30:05;10.80;79.40
4406;DHT22;2216;53.806;11.598;2023-03-14T05:32:31;10.70;79.30
4406;DHT22;2216;53.806;11.598;2023-03-14T05:34:57;10.70;79.30
4406;DHT22;2216;53.806;11.598;2023-03-14T05:37:25;10.70;79.40
4406;DHT22;2216;53.806;11.598;2023-03-14T05:39:51;10.70;79.40
4406;DHT22;2216;53.806;11.598;2023-03-14T05:42:17;10.70;79.40
4406;DHT22;2216;53.806;11.598;2023-03-14T05:44:43;10.70;79.40
4406;DHT22;2216;53.806;11.598;2023-03-14T05:47:09;10.70;79.50
4406;DHT22;2216;53.806;11.598;2023-03-14T05:49:35;10.70;79.50
4406;DHT22;2216;53.806;11.598;2023-03-14T05:52:00;10.70;80.20
4406;DHT22;2216;53.806;11.598;2023-03-14T05:54:26;10.70;79.50
4406;DHT22;2216;53.806;11.598;2023-03-14T05:56:52;10.70;79.50
4406;DHT22;2216;53.806;11.598;2023-03-14T05:59:17;10.70;79.50
4406;DHT22;2216;53.806;11.598;2023-03-14T06:01:43;10.70;79.60
4406;DHT22;2216;53.806;11.598;2023-03-14T06:04:09;10.70;79.60
4406;DHT22;2216;53.806;11.598;2023-03-14T06:06:35;10.70;79.60
4406;DHT22;2216;53.806;11.598;2023-03-14T06:09:00;10.70;79.70
4406;DHT22;2216;53.806;11.598;2023-03-14T06:11:26;10.70;79.70
4406;DHT22;2216;53.806;11.598;2023-03-14T06:13:52;10.70;79.70
4406;DHT22;2216;53.806;11.598;2023-03-14T06:16:18;10.80;79.70
4406;DHT22;2216;53.806;11.598;2023-03-14T06:18:43;10.70;79.70
4406;DHT22;2216;53.806;11.598;2023-03-14T06:21:11;10.80;79.80
4406;DHT22;2216;53.806;11.598;2023-03-14T06:23:37;10.80;79.70
4406;DHT22;2216;53.806;11.598;2023-03-14T06:26:04;10.80;79.70
4406;DHT22;2216;53.806;11.598;2023-03-14T06:28:30;10.80;79.60
4406;DHT22;2216;53.806;11.598;2023-03-14T06:30:56;10.80;79.60
4406;DHT22;2216;53.806;11.598;2023-03-14T06:33:21;10.80;79.60
4406;DHT22;2216;53.806;11.598;2023-03-14T06:35:47;10.80;79.70
4406;DHT22;2216;53.806;11.598;2023-03-14T06:38:13;10.80;79.70
4406;DHT22;2216;53.806;11.598;2023-03-14T06:40:38;10.80;79.80
4406;DHT22;2216;53.806;11.598;2023-03-14T06:43:04;10.80;79.70
4406;DHT22;2216;53.806;11.598;2023-03-14T06:45:30;10.80;79.70
4406;DHT22;2216;53.806;11.598;2023-03-14T06:47:55;10.80;79.80
4406;DHT22;2216;53.806;11.598;2023-03-14T06:50:21;10.80;79.70
4406;DHT22;2216;53.806;11.598;2023-03-14T06:52:48;10.90;79.80
4406;DHT22;2216;53.806;11.598;2023-03-14T06:55:14;10.90;79.90
4406;DHT22;2216;53.806;11.598;2023-03-14T06:57:41;10.90;79.90
4406;DHT22;2216;53.806;11.598;2023-03-14T07:00:07;10.90;79.80
4406;DHT22;2216;53.806;11.598;2023-03-14T07:02:34;10.90;79.70
4406;DHT22;2216;53.806;11.598;2023-03-14T07:04:59;10.90;79.70
4406;DHT22;2216;53.806;11.598;2023-03-14T07:07:26;10.90;79.80
4406;DHT22;2216;53.806;11.598;2023-03-14T07:09:52;10.90;79.90
4406;DHT22;2216;53.806;11.598;2023-03-14T07:12:18;10.90;79.80
4406;DHT22;2216;53.806;11.598;2023-03-14T07:14:44;10.90;79.90
4406;DHT22;2216;53.806;11.598;2023-03-14T07:17:10;10.90;79.90
4406;DHT22;2216;53.806;11.598;2023-03-14T07:19:35;10.90;79.90
4406;DHT22;2216;53.806;11.598;2023-03-14T07:22:01;11.00;80.20
4406;DHT22;2216;53.806;11.598;2023-03-14T07:24:27;11.00;80.20
4406;DHT22;2216;53.806;11.598;2023-03-14T07:26:52;11.00;80.60
4406;DHT22;2216;53.806;11.598;2023-03-14T07:29:18;11.10;80.60
4406;DHT22;2216;53.806;11.598;2023-03-14T07:31:44;11.10;80.50
4406;DHT22;2216;53.806;11.598;2023-03-14T07:34:09;11.20;80.60
4406;DHT22;2216;53.806;11.598;2023-03-14T07:36:35;11.30;80.50
4406;DHT22;2216;53.806;11.598;2023-03-14T07:39:01;11.30;80.40
4406;DHT22;2216;53.806;11.598;2023-03-14T07:41:27;11.40;80.40
4406;DHT22;2216;53.806;11.598;2023-03-14T07:43:52;11.40;80.30
4406;DHT22;2216;53.806;11.598;2023-03-14T07:46:18;11.40;80.10
4406;DHT22;2216;53.806;11.598;2023-03-14T07:48:44;11.40;80.10
4406;DHT22;2216;53.806;11.598;2023-03-14T07:51:09;11.40;80.00
4406;DHT22;2216;53.806;11.598;2023-03-14T07:53:35;11.40;80.00
4406;DHT22;2216;53.806;11.598;2023-03-14T07:56:01;11.50;80.10
4406;DHT22;2216;53.806;11.598;2023-03-14T07:58:26;11.50;80.10
4406;DHT22;2216;53.806;11.598;2023-03-14T08:00:52;11.60;80.30
4406;DHT22;2216;53.806;11.598;2023-03-14T08:03:18;11.60;80.50
4406;DHT22;2216;53.806;11.598;2023-03-14T08:05:47;11.80;80.50
4406;DHT22;2216;53.806;11.598;2023-03-14T08:08:13;11.80;80.80
4406;DHT22;2216;53.806;11.598;2023-03-14T08:10:39;12.00;81.00
4406;DHT22;2216;53.806;11.598;2023-03-14T08:13:04;12.10;81.00
4406;DHT22;2216;53.806;11.598;2023-03-14T08:15:30;12.20;81.00
4406;DHT22;2216;53.806;11.598;2023-03-14T08:17:57;12.30;81.00
4406;DHT22;2216;53.806;11.598;2023-03-14T08:20:25;12.40;80.90
4406;DHT22;2216;53.806;11.598;2023-03-14T08:22:58;12.50;80.70
4406;DHT22;2216;53.806;11.598;2023-03-14T08:25:26;12.50;80.30
4406;DHT22;2216;53.806;11.598;2023-03-14T08:27:52;12.60;80.10
4406;DHT22;2216;53.806;11.598;2023-03-14T08:30:19;12.60;79.90
4406;DHT22;2216;53.806;11.598;2023-03-14T08:32:45;12.50;79.60
4406;DHT22;2216;53.806;11.598;2023-03-14T08:35:12;12.50;79.40
4406;DHT22;2216;53.806;11.598;2023-03-14T08:37:37;12.50;79.30
4406;DHT22;2216;53.806;11.598;2023-03-14T08:40:04;12.50;79.30
4406;DHT22;2216;53.806;11.598;2023-03-14T08:42:36;12.40;79.40
4406;DHT22;2216;53.806;11.598;2023-03-14T08:45:03;12.50;79.30
4406;DHT22;2216;53.806;11.598;2023-03-14T08:47:29;12.50;79.50
4406;DHT22;2216;53.806;11.598;2023-03-14T08:49:55;12.50;79.60
4406;DHT22;2216;53.806;11.598;2023-03-14T08:52:21;12.50;79.70
4406;DHT22;2216;53.806;11.598;2023-03-14T08:54:47;12.60;79.90
4406;DHT22;2216;53.806;11.598;2023-03-14T08:57:12;12.60;80.10
4406;DHT22;2216;53.806;11.598;2023-03-14T08:59:38;12.70;80.10
4406;DHT22;2216;53.806;11.598;2023-03-14T09:02:04;12.80;80.00
4406;DHT22;2216;53.806;11.598;2023-03-14T09:04:31;12.80;79.70
4406;DHT22;2216;53.806;11.598;2023-03-14T09:06:58;12.80;79.50
4406;DHT22;2216;53.806;11.598;2023-03-14T09:09:25;12.90;80.00
4406;DHT22;2216;53.806;11.598;2023-03-14T09:11:54;13.00;80.60
4406;DHT22;2216;53.806;11.598;2023-03-14T09:14:20;13.20;81.00
4406;DHT22;2216;53.806;11.598;2023-03-14T09:16:45;13.30;81.20
4406;DHT22;2216;53.806;11.598;2023-03-14T09:19:11;13.50;81.30
4406;DHT22;2216;53.806;11.598;2023-03-14T09:21:36;13.70;81.30
4406;DHT22;2216;53.806;11.598;2023-03-14T09:24:04;13.70;80.90
4406;DHT22;2216;53.806;11.598;2023-03-14T09:26:30;13.90;80.60
4406;DHT22;2216;53.806;11.598;2023-03-14T09:28:56;14.00;80.50
4406;DHT22;2216;53.806;11.598;2023-03-14T09:31:22;14.10;80.50
4406;DHT22;2216;53.806;11.598;2023-03-14T09:33:48;14.10;80.30
4406;DHT22;2216;53.806;11.598;2023-03-14T09:36:13;14.30;80.10
4406;DHT22;2216;53.806;11.598;2023-03-14T09:38:39;14.30;80.90
4406;DHT22;2216;53.806;11.598;2023-03-14T09:41:29;14.40;80.20
4406;DHT22;2216;53.806;11.598;2023-03-14T09:44:08;14.50;80.00
4406;DHT22;2216;53.806;11.598;2023-03-14T09:46:39;14.50;79.60
4406;DHT22;2216;53.806;11.598;2023-03-14T09:49:14;14.50;79.50
4406;DHT22;2216;53.806;11.598;2023-03-14T09:51:47;14.60;79.10
4406;DHT22;2216;53.806;11.598;2023-03-14T09:54:31;14.50;78.40
4406;DHT22;2216;53.806;11.598;2023-03-14T09:57:00;14.50;78.50
4406;DHT22;2216;53.806;11.598;2023-03-14T09:59:27;14.40;78.40
4406;DHT22;2216;53.806;11.598;2023-03-14T10:02:00;14.30;78.20
4406;DHT22;2216;53.806;11.598;2023-03-14T10:04:27;14.30;78.30
4406;DHT22;2216;53.806;11.598;2023-03-14T10:06:55;14.20;78.30
4406;DHT22;2216;53.806;11.598;2023-03-14T10:09:23;14.10;78.10
4406;DHT22;2216;53.806;11.598;2023-03-14T10:11:56;14.00;78.20
4406;DHT22;2216;53.806;11.598;2023-03-14T10:14:44;14.00;78.10
4406;DHT22;2216;53.806;11.598;2023-03-14T10:17:16;14.00;78.30
4406;DHT22;2216;53.806;11.598;2023-03-14T10:19:57;13.90;78.40
4406;DHT22;2216;53.806;11.598;2023-03-14T10:22:27;13.80;78.00
4406;DHT22;2216;53.806;11.598;2023-03-14T10:24:57;13.80;78.30
4406;DHT22;2216;53.806;11.598;2023-03-14T10:27:32;13.80;78.40
4406;DHT22;2216;53.806;11.598;2023-03-14T10:30:03;13.70;78.40
4406;DHT22;2216;53.806;11.598;2023-03-14T10:32:37;13.70;78.40
4406;DHT22;2216;53.806;11.598;2023-03-14T10:40:25;13.60;78.70
4406;DHT22;2216;53.806;11.598;2023-03-14T10:43:32;13.50;77.90
4406;DHT22;2216;53.806;11.598;2023-03-14T10:46:11;13.50;78.10
4406;DHT22;2216;53.806;11.598;2023-03-14T10:48:39;13.40;78.10
4406;DHT22;2216;53.806;11.598;2023-03-14T10:53:46;13.30;78.10
4406;DHT22;2216;53.806;11.598;2023-03-14T10:56:21;13.30;78.40
4406;DHT22;2216;53.806;11.598;2023-03-14T10:58:50;13.30;78.70
4406;DHT22;2216;53.806;11.598;2023-03-14T11:07:40;13.30;78.90
4406;DHT22;2216;53.806;11.598;2023-03-14T11:10:18;13.40;78.90
4406;DHT22;2216;53.806;11.598;2023-03-14T11:18:47;13.40;78.80
4406;DHT22;2216;53.806;11.598;2023-03-14T11:21:36;13.40;78.80
4406;DHT22;2216;53.806;11.598;2023-03-14T11:35:28;11.60;71.70
4406;DHT22;2216;53.806;11.598;2023-03-14T11:41:12;10.30;72.00
4406;DHT22;2216;53.806;11.598;2023-03-14T11:43:40;9.80;72.50
4406;DHT22;2216;53.806;11.598;2023-03-14T11:46:28;9.30;72.70
4406;DHT22;2216;53.806;11.598;2023-03-14T11:49:06;8.90;73.50
4406;DHT22;2216;53.806;11.598;2023-03-14T11:51:38;8.60;73.80
4406;DHT22;2216;53.806;11.598;2023-03-14T11:59:44;7.70;74.70
4406;DHT22;2216;53.806;11.598;2023-03-14T12:05:21;7.20;75.20
4406;DHT22;2216;53.806;11.598;2023-03-14T12:08:37;6.90;75.40
4406;DHT22;2216;53.806;11.598;2023-03-14T12:13:57;6.50;75.70
4406;DHT22;2216;53.806;11.598;2023-03-14T12:18:49;6.10;76.00
4406;DHT22;2216;53.806;11.598;2023-03-14T12:21:16;6.00;76.20
4406;DHT22;2216;53.806;11.598;2023-03-14T12:23:44;5.80;76.30
4406;DHT22;2216;53.806;11.598;2023-03-14T12:26:15;5.70;76.70
4406;DHT22;2216;53.806;11.598;2023-03-14T12:39:31;5.20;77.50
4406;DHT22;2216;53.806;11.598;2023-03-14T12:45:15;5.10;78.00
4406;DHT22;2216;53.806;11.598;2023-03-14T12:47:52;5.10;78.40
4406;DHT22;2216;53.806;11.598;2023-03-14T12:50:24;5.10;78.50
4406;DHT22;2216;53.806;11.598;2023-03-14T12:52:59;5.00;77.90
4406;DHT22;2216;53.806;11.598;2023-03-14T12:56:02;5.00;78.50
4406;DHT22;2216;53.806;11.598;2023-03-14T13:01:28;5.00;78.60
4406;DHT22;2216;53.806;11.598;2023-03-14T13:03:59;5.00;78.50
4406;DHT22;2216;53.806;11.598;2023-03-14T13:06:51;4.90;78.50
4406;DHT22;2216;53.806;11.598;2023-03-14T13:12:14;4.90;78.60
4406;DHT22;2216;53.806;11.598;2023-03-14T13:14:48;4.90;78.50
4406;DHT22;2216;53.806;11.598;2023-03-14T13:17:16;4.80;78.60
4406;DHT22;2216;53.806;11.598;2023-03-14T13:19:54;4.80;78.50
4406;DHT22;2216;53.806;11.598;2023-03-14T13:22:27;4.80;78.60
4406;DHT22;2216;53.806;11.598;2023-03-14T13:25:00;4.80;78.70
4406;DHT22;2216;53.806;11.598;2023-03-14T13:27:31;4.80;78.70
4406;DHT22;2216;53.806;11.598;2023-03-14T13:29:58;4.90;79.00
4406;DHT22;2216;53.806;11.598;2023-03-14T13:32:28;4.90;78.80
4406;DHT22;2216;53.806;11.598;2023-03-14T13:34:57;4.90;78.70
4406;DHT22;2216;53.806;11.598;2023-03-14T13:37:25;4.90;78.70
4406;DHT22;2216;53.806;11.598;2023-03-14T13:39:53;4.90;78.70
4406;DHT22;2216;53.806;11.598;2023-03-14T13:42:21;4.90;78.80
4406;DHT22;2216;53.806;11.598;2023-03-14T13:44:52;4.90;78.80
4406;DHT22;2216;53.806;11.598;2023-03-14T13:47:20;5.00;78.90
4406;DHT22;2216;53.806;11.598;2023-03-14T13:49:47;5.00;78.90
4406;DHT22;2216;53.806;11.598;2023-03-14T13:52:29;5.00;78.90
4406;DHT22;2216;53.806;11.598;2023-03-14T13:54:57;5.20;79.00
4406;DHT22;2216;53.806;11.598;2023-03-14T13:57:24;5.10;79.00
4406;DHT22;2216;53.806;11.598;2023-03-14T14:00:05;5.10;79.00
4406;DHT22;2216;53.806;11.598;2023-03-14T14:02:36;5.20;79.00
4406;DHT22;2216;53.806;11.598;2023-03-14T14:05:03;5.20;79.00
4406;DHT22;2216;53.806;11.598;2023-03-14T14:07:30;5.20;79.00
4406;DHT22;2216;53.806;11.598;2023-03-14T14:09:57;5.30;79.10
4406;DHT22;2216;53.806;11.598;2023-03-14T14:12:28;5.30;79.10
4406;DHT22;2216;53.806;11.598;2023-03-14T14:15:17;5.30;79.10
4406;DHT22;2216;53.806;11.598;2023-03-14T14:17:51;5.40;79.00
4406;DHT22;2216;53.806;11.598;2023-03-14T14:20:26;5.40;79.00
4406;DHT22;2216;53.806;11.598;2023-03-14T14:23:01;5.50;79.10
4406;DHT22;2216;53.806;11.598;2023-03-14T14:25:33;5.50;78.90
4406;DHT22;2216;53.806;11.598;2023-03-14T14:27:59;5.50;78.80
4406;DHT22;2216;53.806;11.598;2023-03-14T14:30:33;5.50;78.70
4406;DHT22;2216;53.806;11.598;2023-03-14T14:33:18;5.50;78.70
4406;DHT22;2216;53.806;11.598;2023-03-14T14:35:56;5.50;78.60
4406;DHT22;2216;53.806;11.598;2023-03-14T14:38:23;5.50;78.60
4406;DHT22;2216;53.806;11.598;2023-03-14T14:40:51;5.50;78.50
4406;DHT22;2216;53.806;11.598;2023-03-14T14:43:22;5.60;78.60
4406;DHT22;2216;53.806;11.598;2023-03-14T14:45:54;5.50;78.50
4406;DHT22;2216;53.806;11.598;2023-03-14T14:48:26;5.60;78.60
4406;DHT22;2216;53.806;11.598;2023-03-14T14:51:04;5.60;78.60
4406;DHT22;2216;53.806;11.598;2023-03-14T14:53:43;5.60;78.50
4406;DHT22;2216;53.806;11.598;2023-03-14T14:56:18;5.60;78.60
4406;DHT22;2216;53.806;11.598;2023-03-14T14:58:48;5.60;78.50
4406;DHT22;2216;53.806;11.598;2023-03-14T15:01:20;5.60;79.30
4406;DHT22;2216;53.806;11.598;2023-03-14T15:03:51;5.60;78.50
4406;DHT22;2216;53.806;11.598;2023-03-14T15:06:18;5.60;78.60
4406;DHT22;2216;53.806;11.598;2023-03-14T15:08:46;5.70;78.70
4406;DHT22;2216;53.806;11.598;2023-03-14T15:11:19;5.70;78.70
4406;DHT22;2216;53.806;11.598;2023-03-14T15:13:47;5.70;78.70
4406;DHT22;2216;53.806;11.598;2023-03-14T15:16:15;5.70;78.70
4406;DHT22;2216;53.806;11.598;2023-03-14T15:18:43;5.80;78.70
4406;DHT22;2216;53.806;11.598;2023-03-14T15:21:11;5.80;78.80
4406;DHT22;2216;53.806;11.598;2023-03-14T15:23:37;5.80;78.80
4406;DHT22;2216;53.806;11.598;2023-03-14T15:26:12;5.80;78.70
4406;DHT22;2216;53.806;11.598;2023-03-14T15:28:39;5.90;78.70
4406;DHT22;2216;53.806;11.598;2023-03-14T15:31:08;5.90;78.70
4406;DHT22;2216;53.806;11.598;2023-03-14T15:33:34;5.90;78.70
4406;DHT22;2216;53.806;11.598;2023-03-14T15:36:00;6.00;78.70
4406;DHT22;2216;53.806;11.598;2023-03-14T15:38:26;6.00;78.70
4406;DHT22;2216;53.806;11.598;2023-03-14T15:40:52;6.10;78.70
4406;DHT22;2216;53.806;11.598;2023-03-14T15:43:18;6.00;78.70
4406;DHT22;2216;53.806;11.598;2023-03-14T15:45:45;6.00;78.60
4406;DHT22;2216;53.806;11.598;2023-03-14T15:48:16;6.10;78.60
4406;DHT22;2216;53.806;11.598;2023-03-14T15:50:44;6.10;78.50
4406;DHT22;2216;53.806;11.598;2023-03-14T15:53:10;6.10;78.50
4406;DHT22;2216;53.806;11.598;2023-03-14T15:55:36;6.10;78.50
4406;DHT22;2216;53.806;11.598;2023-03-14T15:58:02;6.20;78.50
4406;DHT22;2216;53.806;11.598;2023-03-14T16:00:28;6.20;78.40
4406;DHT22;2216;53.806;11.598;2023-03-14T16:02:55;6.10;78.20
4406;DHT22;2216;53.806;11.598;2023-03-14T16:05:21;6.20;78.20
4406;DHT22;2216;53.806;11.598;2023-03-14T16:07:47;6.20;77.90
4406;DHT22;2216;53.806;11.598;2023-03-14T16:10:14;6.20;78.00
4406;DHT22;2216;53.806;11.598;2023-03-14T16:12:41;6.10;77.40
4406;DHT22;2216;53.806;11.598;2023-03-14T16:15:08;6.10;77.60
4406;DHT22;2216;53.806;11.598;2023-03-14T16:17:34;6.10;77.80
4406;DHT22;2216;53.806;11.598;2023-03-14T16:20:03;6.10;77.80
4406;DHT22;2216;53.806;11.598;2023-03-14T16:22:29;6.00;77.60
4406;DHT22;2216;53.806;11.598;2023-03-14T16:25:00;6.00;77.70
4406;DHT22;2216;53.806;11.598;2023-03-14T16:27:30;6.10;77.70
4406;DHT22;2216;53.806;11.598;2023-03-14T16:29:56;6.00;77.60
4406;DHT22;2216;53.806;11.598;2023-03-14T16:32:24;6.00;77.60
4406;DHT22;2216;53.806;11.598;2023-03-14T16:34:51;6.00;77.60
4406;DHT22;2216;53.806;11.598;2023-03-14T16:37:16;6.00;77.10
4406;DHT22;2216;53.806;11.598;2023-03-14T16:39:42;5.90;77.40
4406;DHT22;2216;53.806;11.598;2023-03-14T16:42:08;5.90;77.50
4406;DHT22;2216;53.806;11.598;2023-03-14T16:44:33;5.90;77.60
4406;DHT22;2216;53.806;11.598;2023-03-14T16:46:59;5.90;77.50
4406;DHT22;2216;53.806;11.598;2023-03-14T16:49:25;5.90;77.10
4406;DHT22;2216;53.806;11.598;2023-03-14T16:51:50;5.90;77.20
4406;DHT22;2216;53.806;11.598;2023-03-14T16:54:16;5.80;77.20
4406;DHT22;2216;53.806;11.598;2023-03-14T16:56:42;5.80;77.40
4406;DHT22;2216;53.806;11.598;2023-03-14T16:59:09;5.80;77.40
4406;DHT22;2216;53.806;11.598;2023-03-14T17:01:35;5.80;77.40
4406;DHT22;2216;53.806;11.598;2023-03-14T17:04:02;5.80;77.50
4406;DHT22;2216;53.806;11.598;2023-03-14T17:06:28;5.80;77.50
4406;DHT22;2216;53.806;11.598;2023-03-14T17:08:54;5.70;77.30
4406;DHT22;2216;53.806;11.598;2023-03-14T17:11:21;5.70;77.30